createdAt,value
2019-03-01T00:00:20.430Z,13.20
2019-03-01T00:02:50.410Z,12.23
2019-03-01T00:05:43.626Z,11.05
2019-03-01T00:08:18.957Z,12.43
2019-03-01T00:11:41.984Z,14.20
2019-03-01T00:14:40.727Z,13.25
2019-03-01T00:17:31.358Z,12.45
2019-03-01T00:20:36.128Z,13.68
2019-03-01T00:23:28.454Z,15.03
2019-03-01T00:26:31.935Z,14.40
2019-03-01T00:29:14.650Z,14.05
2019-03-01T00:32:32.305Z,16.48
2019-03-01T00:35:51.428Z,15.58
2019-03-01T00:39:09.005Z,15.95
2019-03-01T00:42:04.624Z,15.58
2019-03-01T00:44:42.101Z,16.25
2019-03-01T00:47:12.071Z,15.40
2019-03-01T00:49:42.567Z,15.30
2019-03-01T00:52:12.454Z,14.95
2019-03-01T00:54:42.445Z,16.17
2019-03-01T00:57:12.341Z,15.93
2019-03-01T00:59:42.234Z,15.88
2019-03-01T01:02:12.199Z,16.02
2019-03-01T01:04:42.247Z,19.98
2019-03-01T01:07:12.731Z,17.42
2019-03-01T01:09:42.609Z,18.32
2019-03-01T01:12:12.938Z,18.92
2019-03-01T01:14:42.873Z,20.52
2019-03-01T01:17:13.168Z,19.65
2019-03-01T01:19:43.265Z,19.30
2019-03-01T01:22:13.064Z,18.70
2019-03-01T01:24:42.829Z,17.37
2019-03-01T01:27:12.767Z,20.30
2019-03-01T01:29:42.605Z,21.30
2019-03-01T01:32:12.370Z,18.67
2019-03-01T01:34:42.299Z,22.15
2019-03-01T01:37:12.277Z,20.48
2019-03-01T01:39:42.166Z,22.52
2019-03-01T01:42:11.886Z,20.00
2019-03-01T01:44:41.919Z,22.95
2019-03-01T01:47:12.075Z,21.75
2019-03-01T01:49:41.752Z,21.77
2019-03-01T01:52:11.474Z,23.30
2019-03-01T01:54:41.345Z,22.15
2019-03-01T01:57:11.254Z,24.20
2019-03-01T01:59:40.997Z,22.95
2019-03-01T02:02:11.038Z,22.05
2019-03-01T02:04:41.068Z,22.75
2019-03-01T02:07:10.913Z,25.30
2019-03-01T02:09:40.669Z,25.62
2019-03-01T02:12:11.096Z,23.90
2019-03-01T02:14:40.918Z,28.55
2019-03-01T02:17:10.918Z,27.82
2019-03-01T02:19:40.790Z,26.57
2019-03-01T02:22:10.925Z,26.87
2019-03-01T02:24:40.832Z,26.07
2019-03-01T02:27:30.505Z,21.45
2019-03-01T02:30:01.685Z,20.23
2019-03-01T02:32:37.201Z,22.35
2019-03-01T02:35:09.344Z,25.35
2019-03-01T02:37:39.090Z,26.07
2019-03-01T02:40:10.278Z,24.20
2019-03-01T02:42:40.403Z,24.32
2019-03-01T02:45:12.546Z,23.10
2019-03-01T02:47:42.666Z,25.40
2019-03-01T02:50:12.564Z,27.25
2019-03-01T02:52:42.919Z,25.97
2019-03-01T02:55:13.951Z,23.67
2019-03-01T02:57:43.820Z,26.40
2019-03-01T03:00:19.109Z,25.70
2019-03-01T03:02:49.198Z,24.23
2019-03-01T03:05:19.326Z,27.07
2019-03-01T03:08:00.451Z,26.93
2019-03-01T03:10:30.722Z,26.57
2019-03-01T03:13:03.423Z,31.73
2019-03-01T03:15:58.790Z,27.32
2019-03-01T03:18:28.748Z,28.90
2019-03-01T03:20:58.888Z,27.10
2019-03-01T03:23:28.930Z,26.45
2019-03-01T03:25:59.426Z,26.80
2019-03-01T03:28:29.452Z,30.23
2019-03-01T03:30:59.383Z,27.37
2019-03-01T03:33:29.399Z,31.05
2019-03-01T03:35:59.663Z,25.80
2019-03-01T03:38:29.863Z,24.52
2019-03-01T03:40:59.917Z,26.42
2019-03-01T03:43:30.048Z,30.10
2019-03-01T03:45:59.929Z,21.65
2019-03-01T03:48:30.468Z,25.20
2019-03-01T03:51:00.982Z,30.40
2019-03-01T03:53:31.460Z,25.50
2019-03-01T03:56:01.526Z,24.72
2019-03-01T03:58:31.693Z,26.70
2019-03-01T04:01:01.907Z,27.55
2019-03-01T04:03:31.829Z,26.42
2019-03-01T04:06:02.103Z,30.97
2019-03-01T04:08:32.989Z,30.68
2019-03-01T04:11:03.411Z,32.25
2019-03-01T04:13:33.433Z,27.07
2019-03-01T04:16:03.504Z,25.85
2019-03-01T04:18:33.558Z,37.55
2019-03-01T04:21:03.494Z,29.30
2019-03-01T04:23:33.386Z,30.60
2019-03-01T04:26:04.280Z,31.35
2019-03-01T04:28:34.220Z,23.57
2019-03-01T04:31:04.623Z,21.10
2019-03-01T04:33:34.947Z,23.35
2019-03-01T04:36:05.128Z,19.05
2019-03-01T04:38:35.153Z,16.52
2019-03-01T04:41:05.176Z,21.07
2019-03-01T04:43:35.195Z,22.93
2019-03-01T04:46:05.019Z,17.98
2019-03-01T04:48:35.079Z,21.07
2019-03-01T04:51:05.172Z,23.95
2019-03-01T04:53:35.293Z,20.62
2019-03-01T04:56:05.390Z,23.35
2019-03-01T04:58:35.477Z,20.25
2019-03-01T05:01:05.683Z,19.25
2019-03-01T05:03:36.584Z,21.97
2019-03-01T05:06:06.555Z,17.75
2019-03-01T05:08:36.480Z,21.73
2019-03-01T05:11:06.524Z,22.80
2019-03-01T05:13:36.653Z,20.23
2019-03-01T05:16:07.074Z,19.42
2019-03-01T05:18:37.256Z,24.02
2019-03-01T05:21:07.656Z,25.72
2019-03-01T05:23:38.015Z,24.32
2019-03-01T05:26:07.884Z,25.65
2019-03-01T05:28:38.482Z,20.02
2019-03-01T05:31:08.483Z,20.77
2019-03-01T05:33:38.497Z,20.25
2019-03-01T05:36:08.725Z,20.32
2019-03-01T05:38:38.721Z,26.10
2019-03-01T05:41:08.966Z,25.48
2019-03-01T05:43:38.913Z,21.00
2019-03-01T05:46:08.597Z,19.60
2019-03-01T05:48:39.843Z,20.70
2019-03-01T05:51:10.518Z,19.55
2019-03-01T05:53:40.548Z,19.30
2019-03-01T05:56:11.047Z,18.00
2019-03-01T05:58:57.465Z,19.55
2019-03-01T06:01:57.652Z,18.10
2019-03-01T06:04:37.551Z,19.82
2019-03-01T06:07:45.526Z,19.10
2019-03-01T06:10:29.339Z,19.52
2019-03-01T06:13:29.830Z,17.90
2019-03-01T06:16:20.127Z,21.05
2019-03-01T06:19:30.720Z,19.95
2019-03-01T06:22:41.563Z,20.25
2019-03-01T06:25:49.543Z,17.37
2019-03-01T06:28:29.635Z,18.05
2019-03-01T06:31:39.785Z,18.23
2019-03-01T06:34:54.089Z,12.45
2019-03-01T06:37:51.935Z,16.87
2019-03-01T06:41:21.954Z,10.98
2019-03-01T06:44:23.307Z,11.85
2019-03-01T06:47:04.094Z,13.70
2019-03-01T06:50:09.015Z,12.93
2019-03-01T06:52:39.567Z,12.43
2019-03-01T06:55:24.023Z,10.53
2019-03-01T06:57:54.398Z,17.42
2019-03-01T07:00:24.868Z,11.38
2019-03-01T07:02:57.742Z,14.75
2019-03-01T07:05:28.028Z,11.93
2019-03-01T07:07:58.265Z,11.85
2019-03-01T07:10:28.889Z,11.08
2019-03-01T07:12:59.830Z,12.70
2019-03-01T07:15:29.624Z,13.62
2019-03-01T07:18:00.068Z,11.97
2019-03-01T07:20:30.630Z,13.32
2019-03-01T07:23:00.540Z,13.53
2019-03-01T07:25:30.623Z,12.82
2019-03-01T07:28:00.724Z,15.90
2019-03-01T07:30:30.870Z,13.05
2019-03-01T07:33:01.117Z,12.53
2019-03-01T07:35:32.134Z,12.07
2019-03-01T07:38:02.636Z,11.83
2019-03-01T07:40:32.652Z,12.80
2019-03-01T07:43:02.404Z,12.55
2019-03-01T07:45:33.300Z,12.88
2019-03-01T07:48:04.453Z,14.55
2019-03-01T07:50:34.640Z,10.05
2019-03-01T07:53:04.870Z,12.93
2019-03-01T07:55:35.075Z,11.10
2019-03-01T07:58:05.255Z,10.60
2019-03-01T08:00:35.417Z,12.28
2019-03-01T08:03:07.437Z,11.63
2019-03-01T08:05:39.432Z,12.78
2019-03-01T08:08:09.501Z,9.43
2019-03-01T08:10:39.888Z,10.18
2019-03-01T08:13:10.267Z,11.75
2019-03-01T08:15:40.892Z,9.50
2019-03-01T08:18:12.803Z,9.23
2019-03-01T08:20:43.213Z,11.10
2019-03-01T08:23:14.433Z,10.10
2019-03-01T08:25:45.212Z,8.03
2019-03-01T08:28:18.507Z,10.85
2019-03-01T08:30:47.413Z,11.22
2019-03-01T08:33:17.709Z,8.53
2019-03-01T08:35:47.921Z,9.55
2019-03-01T08:38:18.228Z,7.53
2019-03-01T08:40:49.888Z,6.95
2019-03-01T08:43:20.837Z,5.65
2019-03-01T08:45:51.827Z,5.45
2019-03-01T08:48:22.214Z,7.42
2019-03-01T08:50:53.212Z,6.60
2019-03-01T08:53:23.371Z,6.92
2019-03-01T08:55:53.755Z,8.78
2019-03-01T08:58:23.960Z,6.00
2019-03-01T09:00:59.631Z,7.97
2019-03-01T09:03:33.103Z,5.53
2019-03-01T09:06:03.395Z,6.37
2019-03-01T09:08:33.894Z,6.40
2019-03-01T09:11:05.550Z,7.25
2019-03-01T09:13:36.444Z,6.03
2019-03-01T09:16:06.493Z,5.58
2019-03-01T09:18:36.931Z,5.72
2019-03-01T09:21:12.320Z,5.15
2019-03-01T09:23:39.701Z,5.20
2019-03-01T09:26:10.042Z,5.70
2019-03-01T09:28:40.412Z,5.78
2019-03-01T09:31:10.432Z,9.03
2019-03-01T09:33:42.975Z,10.48
2019-03-01T09:36:21.581Z,6.08
2019-03-01T09:38:51.654Z,5.78
2019-03-01T09:41:21.840Z,5.25
2019-03-01T09:43:52.242Z,6.65
2019-03-01T09:46:24.802Z,5.85
2019-03-01T09:48:55.186Z,4.97
2019-03-01T09:51:25.561Z,6.45
2019-03-01T09:53:55.952Z,5.83
2019-03-01T09:56:27.451Z,5.30
2019-03-01T09:58:57.580Z,5.90
2019-03-01T10:01:28.557Z,4.83
2019-03-01T10:03:59.330Z,6.80
2019-03-01T10:06:37.787Z,5.78
2019-03-01T10:09:01.506Z,5.20
2019-03-01T10:11:31.721Z,4.58
2019-03-01T10:14:01.575Z,5.25
2019-03-01T10:16:32.141Z,6.00
2019-03-01T10:19:02.238Z,4.92
2019-03-01T10:21:32.475Z,5.80
2019-03-01T10:24:02.545Z,4.70
2019-03-01T10:26:32.506Z,4.95
2019-03-01T10:29:02.830Z,5.72
2019-03-01T10:31:33.694Z,5.22
2019-03-01T10:34:03.824Z,5.87
2019-03-01T10:36:34.418Z,5.67
2019-03-01T10:39:12.739Z,6.28
2019-03-01T10:41:42.990Z,5.08
2019-03-01T10:44:13.102Z,7.50
2019-03-01T10:46:43.302Z,4.65
2019-03-01T10:49:13.260Z,4.90
2019-03-01T10:51:43.272Z,4.20
2019-03-01T10:54:13.267Z,4.53
2019-03-01T10:56:43.948Z,4.22
2019-03-01T10:59:14.002Z,3.92
2019-03-01T11:01:44.094Z,3.87
2019-03-01T11:04:13.890Z,3.58
2019-03-01T11:06:43.857Z,4.10
2019-03-01T11:09:14.017Z,5.15
2019-03-01T11:11:44.209Z,4.87
2019-03-01T11:14:14.371Z,4.72
2019-03-01T11:16:44.485Z,5.20
2019-03-01T11:19:14.758Z,4.97
2019-03-01T11:21:45.039Z,3.98
2019-03-01T11:24:15.164Z,4.22
2019-03-01T11:26:45.520Z,3.90
2019-03-01T11:29:15.773Z,2.52
2019-03-01T11:31:46.004Z,3.45
2019-03-01T11:34:16.242Z,4.22
2019-03-01T11:36:46.465Z,7.78
2019-03-01T11:39:16.969Z,5.75
2019-03-01T11:41:47.010Z,5.80
2019-03-01T11:44:17.737Z,4.25
2019-03-01T11:46:47.827Z,4.08
2019-03-01T11:49:18.036Z,6.00
2019-03-01T11:51:48.225Z,6.53
2019-03-01T11:54:18.449Z,6.62
2019-03-01T11:56:48.799Z,4.67
2019-03-01T11:59:18.923Z,5.05
2019-03-01T12:01:49.204Z,5.55
2019-03-01T12:04:19.434Z,5.97
2019-03-01T12:06:49.454Z,6.40
2019-03-01T12:09:22.574Z,5.80
2019-03-01T12:11:59.421Z,5.20
2019-03-01T12:14:30.288Z,4.85
2019-03-01T12:17:00.536Z,7.03
2019-03-01T12:19:30.650Z,6.60
2019-03-01T12:22:16.766Z,5.37
2019-03-01T12:24:36.279Z,5.65
2019-03-01T12:27:08.914Z,5.45
2019-03-01T12:29:41.850Z,5.53
2019-03-01T12:32:12.445Z,4.92
2019-03-01T12:34:42.747Z,4.87
2019-03-01T12:37:12.763Z,7.92
2019-03-01T12:39:42.823Z,3.77
2019-03-01T12:42:13.120Z,5.42
2019-03-01T12:44:43.835Z,6.05
2019-03-01T12:47:13.733Z,7.62
2019-03-01T12:49:44.034Z,5.08
2019-03-01T12:52:14.055Z,5.28
2019-03-01T12:54:44.561Z,5.08
2019-03-01T12:57:15.871Z,4.37
2019-03-01T12:59:45.990Z,5.60
2019-03-01T13:02:15.904Z,5.20
2019-03-01T13:04:49.852Z,5.62
2019-03-01T13:07:19.878Z,5.03
2019-03-01T13:09:50.575Z,6.12
2019-03-01T13:12:22.362Z,6.55
2019-03-01T13:14:52.893Z,5.70
2019-03-01T13:17:23.448Z,5.58
2019-03-01T13:19:53.938Z,6.15
2019-03-01T13:22:24.823Z,5.30
2019-03-01T13:24:57.104Z,5.28
2019-03-01T13:27:27.357Z,5.08
2019-03-01T13:29:58.764Z,4.25
2019-03-01T13:32:30.335Z,5.53
2019-03-01T13:35:00.665Z,4.42
2019-03-01T13:37:31.357Z,5.30
2019-03-01T13:40:01.456Z,4.85
2019-03-01T13:42:31.721Z,6.67
2019-03-01T13:45:01.704Z,5.33
2019-03-01T13:47:32.029Z,5.78
2019-03-01T13:50:06.805Z,6.00
2019-03-01T13:52:57.233Z,6.25
2019-03-01T13:56:10.676Z,7.30
2019-03-01T13:59:06.949Z,5.10
2019-03-01T14:01:52.469Z,4.83
2019-03-01T14:04:24.524Z,6.72
2019-03-01T14:07:16.521Z,7.08
2019-03-01T14:09:47.309Z,4.03
2019-03-01T14:12:20.797Z,5.40
2019-03-01T14:14:51.192Z,4.90
2019-03-01T14:17:26.500Z,4.20
2019-03-01T14:19:57.753Z,8.23
2019-03-01T14:22:28.448Z,6.87
2019-03-01T14:25:02.467Z,3.92
2019-03-01T14:27:32.364Z,6.58
2019-03-01T14:30:03.019Z,6.45
2019-03-01T14:32:33.352Z,6.60
2019-03-01T14:35:05.268Z,2.77
2019-03-01T14:37:38.114Z,3.65
2019-03-01T14:40:10.369Z,4.83
2019-03-01T14:42:47.457Z,2.87
2019-03-01T14:45:21.034Z,4.22
2019-03-01T14:47:52.388Z,5.50
2019-03-01T14:50:24.051Z,4.45
2019-03-01T14:52:58.424Z,3.17
2019-03-01T14:55:36.087Z,6.40
2019-03-01T14:58:13.380Z,5.65
2019-03-01T15:00:59.327Z,5.78
2019-03-01T15:03:34.462Z,7.75
2019-03-01T15:06:09.343Z,4.92
2019-03-01T15:08:45.181Z,5.08
2019-03-01T15:11:19.125Z,4.87
2019-03-01T15:13:51.309Z,5.17
2019-03-01T15:16:23.664Z,6.97
2019-03-01T15:18:55.667Z,6.37
2019-03-01T15:21:30.445Z,4.83
2019-03-01T15:24:01.520Z,3.83
2019-03-01T15:26:35.679Z,4.22
2019-03-01T15:29:07.278Z,3.62
2019-03-01T15:31:40.106Z,3.72
2019-03-01T15:34:12.041Z,4.00
2019-03-01T15:36:59.455Z,3.25
2019-03-01T15:39:30.718Z,4.42
2019-03-01T15:42:03.065Z,4.53
2019-03-01T15:44:36.631Z,2.52
2019-03-01T15:47:07.830Z,3.80
2019-03-01T15:49:38.621Z,2.95
2019-03-01T15:52:13.675Z,4.28
2019-03-01T15:54:45.294Z,3.22
2019-03-01T15:57:21.757Z,3.17
2019-03-01T15:59:50.874Z,4.80
2019-03-01T16:02:25.536Z,3.70
2019-03-01T16:04:57.111Z,5.42
2019-03-01T16:10:21.965Z,4.12
2019-03-01T16:12:53.568Z,3.67
2019-03-01T16:15:24.417Z,2.70
2019-03-01T16:18:01.116Z,3.80
2019-03-01T16:20:33.706Z,2.87
2019-03-01T16:23:27.449Z,3.75
2019-03-01T16:25:59.374Z,3.55
2019-03-01T16:28:31.146Z,5.28
2019-03-01T16:31:02.915Z,2.17
2019-03-01T16:33:36.616Z,4.25
2019-03-01T16:36:15.141Z,5.35
2019-03-01T16:38:48.734Z,4.50
2019-03-01T16:41:18.184Z,2.98
2019-03-01T16:43:48.699Z,3.60
2019-03-01T16:46:19.259Z,5.05
2019-03-01T16:48:52.279Z,3.60
2019-03-01T16:51:24.095Z,2.90
2019-03-01T16:53:57.280Z,5.25
2019-03-01T16:56:28.764Z,3.10
2019-03-01T16:59:10.454Z,2.58
2019-03-01T17:01:41.414Z,3.62
2019-03-01T17:04:13.023Z,3.58
2019-03-01T17:06:49.293Z,2.15
2019-03-01T17:09:19.071Z,3.05
2019-03-01T17:11:49.342Z,2.10
2019-03-01T17:14:19.762Z,2.40
2019-03-01T17:16:59.604Z,2.90
2019-03-01T17:19:28.921Z,4.08
2019-03-01T17:21:59.600Z,2.22
2019-03-01T17:24:30.235Z,3.92
2019-03-01T17:27:02.068Z,2.98
2019-03-01T17:29:35.745Z,1.62
2019-03-01T17:32:05.809Z,2.77
2019-03-01T17:34:36.463Z,3.60
2019-03-01T17:37:07.779Z,2.75
2019-03-01T17:39:38.191Z,1.85
2019-03-01T17:42:08.280Z,0.98
2019-03-01T17:44:41.421Z,3.00
2019-03-01T17:47:10.931Z,1.65
2019-03-01T17:49:41.097Z,3.30
2019-03-01T17:52:11.466Z,3.17
2019-03-01T17:54:41.892Z,4.12
2019-03-01T17:57:11.800Z,2.62
2019-03-01T17:59:44.610Z,2.67
2019-03-01T18:02:15.739Z,3.27
2019-03-01T18:04:46.086Z,2.25
2019-03-01T18:07:16.367Z,1.95
2019-03-01T18:09:47.293Z,1.72
2019-03-01T18:12:20.590Z,2.85
2019-03-01T18:14:50.886Z,1.85
2019-03-01T18:17:21.615Z,2.65
2019-03-01T18:19:52.611Z,2.55
2019-03-01T18:22:26.355Z,1.60
2019-03-01T18:24:55.666Z,1.87
2019-03-01T18:27:26.157Z,2.22
2019-03-01T18:29:57.338Z,2.35
2019-03-01T18:32:27.443Z,2.72
2019-03-01T18:34:58.293Z,3.25
2019-03-01T18:37:28.548Z,2.77
2019-03-01T18:39:58.760Z,2.33
2019-03-01T18:42:28.949Z,2.42
2019-03-01T18:44:59.241Z,2.27
2019-03-01T18:47:30.701Z,2.10
2019-03-01T18:50:01.845Z,2.70
2019-03-01T18:52:32.240Z,1.55
2019-03-01T18:55:03.063Z,2.30
2019-03-01T18:57:35.461Z,3.65
2019-03-01T19:00:14.212Z,2.12
2019-03-01T19:02:45.081Z,2.00
2019-03-01T19:05:15.586Z,2.30
2019-03-01T19:07:46.256Z,2.25
2019-03-01T19:10:16.546Z,2.15
2019-03-01T19:12:48.608Z,2.55
2019-03-01T19:15:18.763Z,1.65
2019-03-01T19:17:49.178Z,1.62
2019-03-01T19:20:21.519Z,2.22
2019-03-01T19:22:51.571Z,2.95
2019-03-01T19:25:25.261Z,2.22
2019-03-01T19:27:54.818Z,3.05
2019-03-01T19:30:25.247Z,1.90
2019-03-01T19:32:55.136Z,3.00
2019-03-01T19:35:29.783Z,2.00
2019-03-01T19:37:57.770Z,1.82
2019-03-01T19:40:28.555Z,2.30
2019-03-01T19:42:58.968Z,1.87
2019-03-01T19:45:29.287Z,2.40
2019-03-01T19:48:03.222Z,1.85
2019-03-01T19:50:31.831Z,2.08
2019-03-01T19:53:02.429Z,5.33
2019-03-01T19:55:32.794Z,2.65
2019-03-01T19:58:03.608Z,1.47
2019-03-01T20:00:34.021Z,1.92
2019-03-01T20:03:06.571Z,2.00
2019-03-01T20:05:36.471Z,2.42
2019-03-01T20:08:06.838Z,1.67
2019-03-01T20:10:37.045Z,2.35
2019-03-01T20:13:08.105Z,2.15
2019-03-01T20:15:38.370Z,2.25
2019-03-01T20:18:09.922Z,2.50
2019-03-01T20:20:40.727Z,4.42
2019-03-01T20:23:11.046Z,1.95
2019-03-01T20:25:41.391Z,2.50
2019-03-01T20:28:15.211Z,3.17
2019-03-01T20:30:44.907Z,3.12
2019-03-01T20:33:15.414Z,2.20
2019-03-01T20:35:45.422Z,2.65
2019-03-01T20:38:15.346Z,3.02
2019-03-01T20:40:45.759Z,3.30
2019-03-01T20:43:15.822Z,2.20
2019-03-01T20:45:46.509Z,1.57
2019-03-01T20:48:16.798Z,2.67
2019-03-01T20:50:47.595Z,1.32
2019-03-01T20:53:20.736Z,1.80
2019-03-01T20:55:51.090Z,1.60
2019-03-01T20:58:22.197Z,1.77
2019-03-01T21:00:52.548Z,1.92
2019-03-01T21:03:24.960Z,1.22
2019-03-01T21:05:55.875Z,2.10
2019-03-01T21:08:28.974Z,2.75
2019-03-01T21:10:58.532Z,1.42
2019-03-01T21:13:28.465Z,1.40
2019-03-01T21:15:58.756Z,2.02
2019-03-01T21:18:30.815Z,2.00
2019-03-01T21:21:00.844Z,2.30
2019-03-01T21:23:30.883Z,1.47
2019-03-01T21:26:00.717Z,2.60
2019-03-01T21:28:33.736Z,3.20
2019-03-01T21:31:02.704Z,2.25
2019-03-01T21:33:32.918Z,1.70
2019-03-01T21:36:03.603Z,2.20
2019-03-01T21:38:33.627Z,2.37
2019-03-01T21:41:06.279Z,2.15
2019-03-01T21:43:36.868Z,1.65
2019-03-01T21:46:08.593Z,1.27
2019-03-01T21:48:38.854Z,2.40
2019-03-01T21:51:09.511Z,2.35
2019-03-01T21:53:39.923Z,4.25
2019-03-01T21:56:11.163Z,2.15
2019-03-01T21:58:41.991Z,2.05
2019-03-01T22:01:13.252Z,2.08
2019-03-01T22:03:43.090Z,2.10
2019-03-01T22:06:13.127Z,1.85
2019-03-01T22:08:44.830Z,2.27
2019-03-01T22:11:15.305Z,2.52
2019-03-01T22:13:45.289Z,2.08
2019-03-01T22:16:15.403Z,1.90
2019-03-01T22:18:45.682Z,2.20
2019-03-01T22:21:16.551Z,1.75
2019-03-01T22:23:51.440Z,2.30
2019-03-01T22:26:20.378Z,2.42
2019-03-01T22:35:50.298Z,1.80
2019-03-01T22:38:20.742Z,2.40
2019-03-01T22:40:50.856Z,1.15
2019-03-01T22:43:22.505Z,1.50
2019-03-01T22:45:52.815Z,2.08
2019-03-01T22:48:23.131Z,1.52
2019-03-01T22:50:53.249Z,1.60
2019-03-01T22:53:23.507Z,2.05
2019-03-01T22:55:53.445Z,1.35
2019-03-01T22:58:24.208Z,1.40
2019-03-01T23:01:13.322Z,1.22
2019-03-01T23:03:51.530Z,1.50
2019-03-01T23:06:20.633Z,1.05
2019-03-01T23:08:50.578Z,1.20
2019-03-01T23:11:20.438Z,1.37
2019-03-01T23:13:52.696Z,1.50
2019-03-01T23:16:22.381Z,1.45
2019-03-01T23:18:56.692Z,2.92
2019-03-01T23:21:24.818Z,1.15
2019-03-01T23:23:55.765Z,1.60
2019-03-01T23:26:26.996Z,0.85
2019-03-01T23:28:57.194Z,1.60
2019-03-01T23:31:27.323Z,1.20
2019-03-01T23:33:57.277Z,1.98
2019-03-01T23:36:28.535Z,1.10
2019-03-01T23:38:59.280Z,1.12
2019-03-01T23:41:29.378Z,1.20
2019-03-01T23:43:59.202Z,1.60
2019-03-01T23:46:29.538Z,1.32
2019-03-01T23:49:05.993Z,1.60
2019-03-01T23:51:31.387Z,2.10
2019-03-01T23:54:01.515Z,1.57
2019-03-01T23:56:31.547Z,1.55
2019-03-01T23:59:01.703Z,0.95
